sensor_id;sensor_type;location;lat;lon;timestamp;pressure;altitude;pressure_sealevel;temperature;humidity
31717;BME280;18301;51.076;17.046;2023-05-24T00:01:04;99983.34;;;16.41;93.59
31717;BME280;18301;51.076;17.046;2023-05-24T00:06:07;99984.13;;;16.33;94.66
31717;BME280;18301;51.076;17.046;2023-05-24T00:11:09;99985.50;;;16.11;95.58
31717;BME280;18301;51.076;17.046;2023-05-24T00:16:11;99995.47;;;16.03;94.73
31717;BME280;18301;51.076;17.046;2023-05-24T00:21:13;99992.44;;;16.06;94.47
31717;BME280;18301;51.076;17.046;2023-05-24T00:26:14;100010.66;;;15.87;94.35
31717;BME280;18301;51.076;17.046;2023-05-24T00:31:16;100007.84;;;15.43;95.85
31717;BME280;18301;51.076;17.046;2023-05-24T00:36:17;100011.88;;;15.39;95.54
31717;BME280;18301;51.076;17.046;2023-05-24T00:41:19;100013.03;;;14.91;100.00
31717;BME280;18301;51.076;17.046;2023-05-24T00:46:33;100012.56;;;14.96;98.65
31717;BME280;18301;51.076;17.046;2023-05-24T00:51:35;100020.56;;;14.70;100.00
31717;BME280;18301;51.076;17.046;2023-05-24T00:56:38;100039.47;;;14.89;99.06
31717;BME280;18301;51.076;17.046;2023-05-24T01:01:40;100032.75;;;14.93;96.91
31717;BME280;18301;51.076;17.046;2023-05-24T01:12:25;100036.22;;;14.86;96.95
31717;BME280;18301;51.076;17.046;2023-05-24T01:17:33;100054.56;;;15.02;94.10
31717;BME280;18301;51.076;17.046;2023-05-24T01:27:51;100055.78;;;14.33;96.48
31717;BME280;18301;51.076;17.046;2023-05-24T01:32:53;100056.63;;;14.53;94.80
31717;BME280;18301;51.076;17.046;2023-05-24T01:37:55;100070.09;;;13.96;96.96
31717;BME280;18301;51.076;17.046;2023-05-24T01:53:45;100079.78;;;13.59;99.55
31717;BME280;18301;51.076;17.046;2023-05-24T01:58:49;100093.94;;;13.23;98.84
31717;BME280;18301;51.076;17.046;2023-05-24T02:03:53;100100.63;;;13.69;94.99
31717;BME280;18301;51.076;17.046;2023-05-24T02:08:55;100100.22;;;13.73;93.65
31717;BME280;18301;51.076;17.046;2023-05-24T02:13:56;100116.59;;;13.52;94.08
31717;BME280;18301;51.076;17.046;2023-05-24T02:18:58;100119.16;;;13.64;90.05
31717;BME280;18301;51.076;17.046;2023-05-24T02:24:00;100122.13;;;13.41;91.06
31717;BME280;18301;51.076;17.046;2023-05-24T02:29:02;100126.78;;;13.29;91.98
31717;BME280;18301;51.076;17.046;2023-05-24T02:34:03;100129.69;;;13.17;90.00
31717;BME280;18301;51.076;17.046;2023-05-24T02:39:05;100133.97;;;13.40;88.21
31717;BME280;18301;51.076;17.046;2023-05-24T02:44:06;100146.97;;;13.16;88.57
31717;BME280;18301;51.076;17.046;2023-05-24T02:49:08;100151.31;;;12.76;91.35
31717;BME280;18301;51.076;17.046;2023-05-24T02:54:10;100147.78;;;13.06;89.84
31717;BME280;18301;51.076;17.046;2023-05-24T02:59:12;100153.19;;;13.06;89.79
31717;BME280;18301;51.076;17.046;2023-05-24T03:04:13;100161.28;;;12.76;91.51
31717;BME280;18301;51.076;17.046;2023-05-24T03:09:15;100168.00;;;13.02;90.16
31717;BME280;18301;51.076;17.046;2023-05-24T03:14:17;100178.31;;;13.08;90.81
31717;BME280;18301;51.076;17.046;2023-05-24T03:19:20;100176.47;;;12.88;91.71
31717;BME280;18301;51.076;17.046;2023-05-24T03:24:22;100181.63;;;12.91;92.51
31717;BME280;18301;51.076;17.046;2023-05-24T03:29:23;100183.34;;;12.92;92.62
31717;BME280;18301;51.076;17.046;2023-05-24T03:34:25;100185.19;;;12.71;93.56
31717;BME280;18301;51.076;17.046;2023-05-24T03:39:26;100175.66;;;12.97;91.54
31717;BME280;18301;51.076;17.046;2023-05-24T03:44:28;100179.91;;;13.21;90.34
31717;BME280;18301;51.076;17.046;2023-05-24T03:49:30;100178.50;;;12.96;90.23
31717;BME280;18301;51.076;17.046;2023-05-24T03:54:32;100180.56;;;12.61;92.76
31717;BME280;18301;51.076;17.046;2023-05-24T03:59:33;100165.09;;;12.94;89.79
31717;BME280;18301;51.076;17.046;2023-05-24T04:04:35;100186.84;;;12.62;91.47
31717;BME280;18301;51.076;17.046;2023-05-24T04:09:37;100196.09;;;12.59;92.19
31717;BME280;18301;51.076;17.046;2023-05-24T04:14:39;100197.13;;;12.68;91.45
31717;BME280;18301;51.076;17.046;2023-05-24T04:19:40;100209.09;;;13.07;89.73
31717;BME280;18301;51.076;17.046;2023-05-24T04:24:42;100202.69;;;12.66;91.80
31717;BME280;18301;51.076;17.046;2023-05-24T04:29:44;100200.38;;;12.62;91.52
31717;BME280;18301;51.076;17.046;2023-05-24T04:34:50;100211.22;;;13.04;89.09
31717;BME280;18301;51.076;17.046;2023-05-24T04:39:52;100221.50;;;12.89;90.43
31717;BME280;18301;51.076;17.046;2023-05-24T04:44:54;100219.38;;;13.13;89.49
31717;BME280;18301;51.076;17.046;2023-05-24T04:49:55;100228.25;;;12.95;89.74
31717;BME280;18301;51.076;17.046;2023-05-24T04:54:57;100227.00;;;12.99;89.84
31717;BME280;18301;51.076;17.046;2023-05-24T04:59:58;100227.88;;;12.99;90.54
31717;BME280;18301;51.076;17.046;2023-05-24T05:05:00;100237.34;;;13.14;89.66
31717;BME280;18301;51.076;17.046;2023-05-24T05:10:01;100239.84;;;12.64;92.22
31717;BME280;18301;51.076;17.046;2023-05-24T05:15:03;100254.31;;;13.28;88.69
31717;BME280;18301;51.076;17.046;2023-05-24T05:20:05;100261.69;;;12.84;89.11
31717;BME280;18301;51.076;17.046;2023-05-24T05:25:07;100269.94;;;13.03;88.68
31717;BME280;18301;51.076;17.046;2023-05-24T05:30:09;100274.75;;;13.21;88.50
31717;BME280;18301;51.076;17.046;2023-05-24T05:35:11;100280.75;;;13.45;85.50
31717;BME280;18301;51.076;17.046;2023-05-24T05:40:12;100287.19;;;13.44;83.66
31717;BME280;18301;51.076;17.046;2023-05-24T05:45:14;100288.91;;;13.03;86.02
31717;BME280;18301;51.076;17.046;2023-05-24T05:50:16;100288.16;;;13.01;85.72
31717;BME280;18301;51.076;17.046;2023-05-24T05:55:17;100309.41;;;12.96;86.19
31717;BME280;18301;51.076;17.046;2023-05-24T06:00:20;100299.69;;;12.61;88.66
31717;BME280;18301;51.076;17.046;2023-05-24T06:05:22;100303.72;;;12.99;85.76
31717;BME280;18301;51.076;17.046;2023-05-24T06:10:24;100307.75;;;13.26;81.20
31717;BME280;18301;51.076;17.046;2023-05-24T06:15:25;100314.41;;;13.22;80.32
31717;BME280;18301;51.076;17.046;2023-05-24T06:20:27;100316.97;;;13.23;81.25
31717;BME280;18301;51.076;17.046;2023-05-24T06:25:29;100311.78;;;13.52;80.27
31717;BME280;18301;51.076;17.046;2023-05-24T06:30:31;100326.69;;;13.37;80.67
31717;BME280;18301;51.076;17.046;2023-05-24T06:35:34;100337.16;;;13.51;81.37
31717;BME280;18301;51.076;17.046;2023-05-24T06:40:35;100333.63;;;13.61;78.53
31717;BME280;18301;51.076;17.046;2023-05-24T06:45:37;100358.94;;;13.92;74.51
31717;BME280;18301;51.076;17.046;2023-05-24T06:50:38;100372.81;;;13.98;73.81
31717;BME280;18301;51.076;17.046;2023-05-24T06:55:43;100370.59;;;14.13;73.49
31717;BME280;18301;51.076;17.046;2023-05-24T07:00:44;100368.19;;;14.20;73.55
31717;BME280;18301;51.076;17.046;2023-05-24T07:05:46;100381.22;;;14.26;72.04
31717;BME280;18301;51.076;17.046;2023-05-24T07:10:48;100397.03;;;13.90;72.32
31717;BME280;18301;51.076;17.046;2023-05-24T07:15:49;100385.25;;;13.70;72.91
31717;BME280;18301;51.076;17.046;2023-05-24T07:20:51;100393.75;;;14.17;71.38
31717;BME280;18301;51.076;17.046;2023-05-24T07:25:52;100410.81;;;14.29;71.68
31717;BME280;18301;51.076;17.046;2023-05-24T07:30:54;100403.91;;;13.94;72.49
31717;BME280;18301;51.076;17.046;2023-05-24T07:35:56;100420.94;;;14.27;72.53
31717;BME280;18301;51.076;17.046;2023-05-24T07:41:01;100425.75;;;14.14;74.31
31717;BME280;18301;51.076;17.046;2023-05-24T07:46:06;100429.38;;;14.64;73.10
31717;BME280;18301;51.076;17.046;2023-05-24T07:51:08;100422.38;;;14.31;75.08
31717;BME280;18301;51.076;17.046;2023-05-24T07:56:10;100432.41;;;14.40;74.76
31717;BME280;18301;51.076;17.046;2023-05-24T08:01:11;100436.94;;;14.61;74.06
31717;BME280;18301;51.076;17.046;2023-05-24T08:06:13;100438.22;;;14.57;73.54
31717;BME280;18301;51.076;17.046;2023-05-24T08:11:15;100447.81;;;14.30;75.55
31717;BME280;18301;51.076;17.046;2023-05-24T08:16:17;100447.25;;;14.67;73.28
31717;BME280;18301;51.076;17.046;2023-05-24T08:21:19;100452.66;;;15.36;70.53
31717;BME280;18301;51.076;17.046;2023-05-24T08:26:20;100443.91;;;15.33;69.98
31717;BME280;18301;51.076;17.046;2023-05-24T08:31:22;100456.66;;;15.23;70.48
31717;BME280;18301;51.076;17.046;2023-05-24T08:36:24;100451.22;;;15.52;68.72
31717;BME280;18301;51.076;17.046;2023-05-24T08:41:27;100448.50;;;15.52;68.38
31717;BME280;18301;51.076;17.046;2023-05-24T08:46:29;100462.09;;;15.32;67.47
31717;BME280;18301;51.076;17.046;2023-05-24T08:51:31;100463.97;;;15.61;66.52
31717;BME280;18301;51.076;17.046;2023-05-24T08:56:33;100456.97;;;15.49;67.43
31717;BME280;18301;51.076;17.046;2023-05-24T09:01:37;100468.81;;;15.48;67.68
31717;BME280;18301;51.076;17.046;2023-05-24T09:06:40;100460.63;;;16.06;67.27
31717;BME280;18301;51.076;17.046;2023-05-24T09:11:44;100464.94;;;15.99;65.59
31717;BME280;18301;51.076;17.046;2023-05-24T09:16:47;100476.84;;;15.78;66.06
31717;BME280;18301;51.076;17.046;2023-05-24T09:21:49;100483.69;;;16.02;66.62
31717;BME280;18301;51.076;17.046;2023-05-24T09:26:50;100482.84;;;16.01;65.33
31717;BME280;18301;51.076;17.046;2023-05-24T09:31:54;100486.03;;;16.34;64.65
31717;BME280;18301;51.076;17.046;2023-05-24T09:36:57;100482.59;;;16.42;64.25
31717;BME280;18301;51.076;17.046;2023-05-24T09:42:01;100474.13;;;16.72;64.32
31717;BME280;18301;51.076;17.046;2023-05-24T09:47:03;100486.19;;;16.32;62.52
31717;BME280;18301;51.076;17.046;2023-05-24T09:52:05;100480.25;;;16.47;63.39
31717;BME280;18301;51.076;17.046;2023-05-24T09:57:07;100483.81;;;16.57;62.38
31717;BME280;18301;51.076;17.046;2023-05-24T10:02:10;100482.94;;;16.09;64.92
31717;BME280;18301;51.076;17.046;2023-05-24T10:07:12;100488.13;;;16.50;64.08
31717;BME280;18301;51.076;17.046;2023-05-24T10:12:15;100508.97;;;16.31;64.07
31717;BME280;18301;51.076;17.046;2023-05-24T10:17:17;100508.78;;;15.96;64.56
31717;BME280;18301;51.076;17.046;2023-05-24T10:22:20;100505.00;;;16.26;64.34
31717;BME280;18301;51.076;17.046;2023-05-24T10:27:25;100500.44;;;16.07;65.96
31717;BME280;18301;51.076;17.046;2023-05-24T10:32:29;100508.75;;;16.15;65.36
31717;BME280;18301;51.076;17.046;2023-05-24T10:37:32;100506.75;;;16.17;65.58
31717;BME280;18301;51.076;17.046;2023-05-24T10:42:34;100508.88;;;16.61;63.49
31717;BME280;18301;51.076;17.046;2023-05-24T10:47:36;100504.41;;;16.69;65.19
31717;BME280;18301;51.076;17.046;2023-05-24T10:52:39;100510.88;;;16.21;63.99
31717;BME280;18301;51.076;17.046;2023-05-24T10:57:41;100519.03;;;16.21;63.63
31717;BME280;18301;51.076;17.046;2023-05-24T11:02:43;100518.31;;;16.19;64.21
31717;BME280;18301;51.076;17.046;2023-05-24T11:07:44;100507.66;;;16.83;63.33
31717;BME280;18301;51.076;17.046;2023-05-24T11:12:56;100516.25;;;16.88;62.47
31717;BME280;18301;51.076;17.046;2023-05-24T11:23:09;100528.06;;;17.06;60.86
31717;BME280;18301;51.076;17.046;2023-05-24T11:28:11;100537.59;;;17.20;61.28
31717;BME280;18301;51.076;17.046;2023-05-24T11:33:21;100524.88;;;16.83;60.96
31717;BME280;18301;51.076;17.046;2023-05-24T11:38:24;100524.19;;;16.71;60.98
31717;BME280;18301;51.076;17.046;2023-05-24T11:43:25;100531.78;;;16.77;61.99
31717;BME280;18301;51.076;17.046;2023-05-24T11:48:27;100535.63;;;16.38;63.24
31717;BME280;18301;51.076;17.046;2023-05-24T11:53:30;100529.78;;;16.70;62.37
31717;BME280;18301;51.076;17.046;2023-05-24T11:58:47;100540.88;;;16.96;60.41
31717;BME280;18301;51.076;17.046;2023-05-24T12:03:50;100537.22;;;16.77;61.62
31717;BME280;18301;51.076;17.046;2023-05-24T12:08:53;100535.06;;;16.71;61.12
31717;BME280;18301;51.076;17.046;2023-05-24T12:13:57;100532.81;;;16.76;60.15
31717;BME280;18301;51.076;17.046;2023-05-24T12:19:00;100535.47;;;16.86;60.44
31717;BME280;18301;51.076;17.046;2023-05-24T12:24:16;100528.06;;;16.78;61.23
31717;BME280;18301;51.076;17.046;2023-05-24T12:29:19;100526.50;;;16.66;62.05
31717;BME280;18301;51.076;17.046;2023-05-24T12:34:21;100522.38;;;16.99;60.76
31717;BME280;18301;51.076;17.046;2023-05-24T12:39:25;100524.22;;;17.44;59.90
31717;BME280;18301;51.076;17.046;2023-05-24T12:44:36;100524.53;;;17.41;60.51
31717;BME280;18301;51.076;17.046;2023-05-24T12:49:38;100529.00;;;17.60;58.99
31717;BME280;18301;51.076;17.046;2023-05-24T12:54:40;100529.81;;;17.25;59.65
31717;BME280;18301;51.076;17.046;2023-05-24T12:59:42;100532.06;;;17.30;60.31
31717;BME280;18301;51.076;17.046;2023-05-24T13:04:44;100529.63;;;17.09;60.56
31717;BME280;18301;51.076;17.046;2023-05-24T13:09:46;100537.03;;;17.44;59.17
31717;BME280;18301;51.076;17.046;2023-05-24T13:14:47;100530.94;;;17.50;59.30
31717;BME280;18301;51.076;17.046;2023-05-24T13:19:52;100531.72;;;17.15;59.76
31717;BME280;18301;51.076;17.046;2023-05-24T13:24:54;100533.94;;;17.29;60.19
31717;BME280;18301;51.076;17.046;2023-05-24T13:29:56;100527.06;;;17.53;59.89
31717;BME280;18301;51.076;17.046;2023-05-24T13:35:01;100534.22;;;17.54;59.46
31717;BME280;18301;51.076;17.046;2023-05-24T13:40:07;100533.81;;;17.66;58.70
31717;BME280;18301;51.076;17.046;2023-05-24T13:45:10;100532.81;;;17.85;57.51
31717;BME280;18301;51.076;17.046;2023-05-24T13:50:12;100539.59;;;17.63;57.80
31717;BME280;18301;51.076;17.046;2023-05-24T13:55:13;100526.19;;;17.52;58.96
31717;BME280;18301;51.076;17.046;2023-05-24T14:00:15;100531.25;;;17.47;58.96
31717;BME280;18301;51.076;17.046;2023-05-24T14:05:18;100533.81;;;17.66;58.63
31717;BME280;18301;51.076;17.046;2023-05-24T14:10:28;100543.06;;;18.01;58.27
31717;BME280;18301;51.076;17.046;2023-05-24T14:15:29;100532.66;;;18.05;58.88
31717;BME280;18301;51.076;17.046;2023-05-24T14:20:34;100522.81;;;18.38;56.63
31717;BME280;18301;51.076;17.046;2023-05-24T14:25:40;100522.41;;;18.51;56.52
31717;BME280;18301;51.076;17.046;2023-05-24T14:30:43;100512.53;;;18.58;56.58
31717;BME280;18301;51.076;17.046;2023-05-24T14:35:44;100513.25;;;18.68;54.85
31717;BME280;18301;51.076;17.046;2023-05-24T14:40:46;100512.28;;;18.43;56.76
31717;BME280;18301;51.076;17.046;2023-05-24T14:45:48;100513.13;;;18.70;54.55
31717;BME280;18301;51.076;17.046;2023-05-24T14:50:50;100521.75;;;18.57;55.87
31717;BME280;18301;51.076;17.046;2023-05-24T14:55:51;100530.03;;;18.47;54.94
31717;BME280;18301;51.076;17.046;2023-05-24T15:00:54;100532.03;;;18.37;55.77
31717;BME280;18301;51.076;17.046;2023-05-24T15:05:56;100520.75;;;18.92;54.34
31717;BME280;18301;51.076;17.046;2023-05-24T15:10:57;100520.09;;;18.38;54.03
31717;BME280;18301;51.076;17.046;2023-05-24T15:15:59;100522.41;;;18.51;54.17
31717;BME280;18301;51.076;17.046;2023-05-24T15:21:01;100514.44;;;18.66;53.77
31717;BME280;18301;51.076;17.046;2023-05-24T15:26:02;100511.69;;;18.57;54.50
31717;BME280;18301;51.076;17.046;2023-05-24T15:31:04;100527.63;;;18.44;55.43
31717;BME280;18301;51.076;17.046;2023-05-24T15:36:06;100516.44;;;18.55;55.49
31717;BME280;18301;51.076;17.046;2023-05-24T15:41:07;100507.06;;;18.58;55.46
31717;BME280;18301;51.076;17.046;2023-05-24T15:46:09;100494.97;;;18.60;55.33
31717;BME280;18301;51.076;17.046;2023-05-24T15:51:11;100507.06;;;18.58;55.31
31717;BME280;18301;51.076;17.046;2023-05-24T15:56:15;100505.78;;;18.44;55.97
31717;BME280;18301;51.076;17.046;2023-05-24T16:01:17;100509.16;;;18.38;55.39
31717;BME280;18301;51.076;17.046;2023-05-24T16:06:19;100511.75;;;18.13;56.02
31717;BME280;18301;51.076;17.046;2023-05-24T16:11:20;100507.09;;;18.32;55.79
31717;BME280;18301;51.076;17.046;2023-05-24T16:16:24;100512.09;;;18.18;56.09
31717;BME280;18301;51.076;17.046;2023-05-24T16:21:26;100533.16;;;17.82;56.72
31717;BME280;18301;51.076;17.046;2023-05-24T16:26:29;100525.44;;;17.78;57.69
31717;BME280;18301;51.076;17.046;2023-05-24T16:31:33;100527.84;;;17.81;57.96
31717;BME280;18301;51.076;17.046;2023-05-24T16:36:35;100527.16;;;17.79;58.00
31717;BME280;18301;51.076;17.046;2023-05-24T16:41:37;100539.50;;;17.83;57.84
31717;BME280;18301;51.076;17.046;2023-05-24T16:46:40;100542.94;;;17.57;58.56
31717;BME280;18301;51.076;17.046;2023-05-24T16:51:41;100546.59;;;17.48;58.46
31717;BME280;18301;51.076;17.046;2023-05-24T16:56:43;100557.03;;;17.35;58.89
31717;BME280;18301;51.076;17.046;2023-05-24T17:01:46;100555.31;;;17.34;58.79
31717;BME280;18301;51.076;17.046;2023-05-24T17:06:49;100558.44;;;17.39;58.76
31717;BME280;18301;51.076;17.046;2023-05-24T17:11:50;100559.03;;;17.33;59.02
31717;BME280;18301;51.076;17.046;2023-05-24T17:16:52;100563.41;;;17.25;59.33
31717;BME280;18301;51.076;17.046;2023-05-24T17:21:53;100563.03;;;17.38;59.04
31717;BME280;18301;51.076;17.046;2023-05-24T17:26:55;100577.00;;;17.08;59.95
31717;BME280;18301;51.076;17.046;2023-05-24T17:31:57;100581.63;;;16.97;60.18
31717;BME280;18301;51.076;17.046;2023-05-24T17:36:58;100581.09;;;16.94;60.34
31717;BME280;18301;51.076;17.046;2023-05-24T17:42:00;100593.13;;;16.91;60.33
31717;BME280;18301;51.076;17.046;2023-05-24T17:47:01;100599.78;;;16.79;60.79
31717;BME280;18301;51.076;17.046;2023-05-24T17:52:03;100591.75;;;16.77;61.01
31717;BME280;18301;51.076;17.046;2023-05-24T17:57:05;100609.53;;;16.62;62.10
31717;BME280;18301;51.076;17.046;2023-05-24T18:02:08;100608.97;;;16.58;61.74
31717;BME280;18301;51.076;17.046;2023-05-24T18:07:09;100611.88;;;16.57;61.91
31717;BME280;18301;51.076;17.046;2023-05-24T18:12:11;100606.16;;;16.50;62.15
31717;BME280;18301;51.076;17.046;2023-05-24T18:17:12;100630.06;;;16.47;62.85
31717;BME280;18301;51.076;17.046;2023-05-24T18:22:15;100632.53;;;16.30;63.60
31717;BME280;18301;51.076;17.046;2023-05-24T18:27:16;100636.00;;;16.23;63.65
31717;BME280;18301;51.076;17.046;2023-05-24T18:32:18;100639.72;;;16.12;64.27
31717;BME280;18301;51.076;17.046;2023-05-24T18:37:19;100639.56;;;16.04;65.23
31717;BME280;18301;51.076;17.046;2023-05-24T18:42:23;100645.72;;;15.96;65.28
31717;BME280;18301;51.076;17.046;2023-05-24T18:47:24;100655.75;;;15.96;65.44
31717;BME280;18301;51.076;17.046;2023-05-24T18:52:27;100657.47;;;15.97;65.46
31717;BME280;18301;51.076;17.046;2023-05-24T18:57:29;100676.06;;;15.92;65.72
31717;BME280;18301;51.076;17.046;2023-05-24T19:02:32;100671.75;;;15.79;65.96
31717;BME280;18301;51.076;17.046;2023-05-24T19:07:38;100678.34;;;15.67;66.71
31717;BME280;18301;51.076;17.046;2023-05-24T19:12:40;100670.72;;;15.61;67.69
31717;BME280;18301;51.076;17.046;2023-05-24T19:17:42;100679.97;;;15.49;67.67
31717;BME280;18301;51.076;17.046;2023-05-24T19:22:43;100684.81;;;15.45;67.83
31717;BME280;18301;51.076;17.046;2023-05-24T19:27:45;100680.81;;;15.39;68.34
31717;BME280;18301;51.076;17.046;2023-05-24T19:32:59;100679.31;;;15.26;68.77
31717;BME280;18301;51.076;17.046;2023-05-24T19:38:00;100673.28;;;15.22;69.23
31717;BME280;18301;51.076;17.046;2023-05-24T19:43:02;100680.13;;;15.16;69.87
31717;BME280;18301;51.076;17.046;2023-05-24T19:48:03;100675.81;;;15.14;70.58
31717;BME280;18301;51.076;17.046;2023-05-24T19:53:05;100681.53;;;15.11;70.98
31717;BME280;18301;51.076;17.046;2023-05-24T19:58:07;100685.19;;;15.00;71.26
31717;BME280;18301;51.076;17.046;2023-05-24T20:03:09;100682.59;;;14.99;71.73
31717;BME280;18301;51.076;17.046;2023-05-24T20:08:11;100695.13;;;14.90;72.10
31717;BME280;18301;51.076;17.046;2023-05-24T20:13:13;100693.31;;;14.90;72.40
31717;BME280;18301;51.076;17.046;2023-05-24T20:18:15;100697.25;;;14.86;72.98
31717;BME280;18301;51.076;17.046;2023-05-24T20:23:17;100696.72;;;14.71;73.39
31717;BME280;18301;51.076;17.046;2023-05-24T20:28:18;100699.59;;;14.70;73.75
31717;BME280;18301;51.076;17.046;2023-05-24T20:33:31;100706.56;;;14.63;74.28
31717;BME280;18301;51.076;17.046;2023-05-24T20:38:38;100710.06;;;14.54;74.60
31717;BME280;18301;51.076;17.046;2023-05-24T20:43:39;100711.53;;;14.46;75.18
31717;BME280;18301;51.076;17.046;2023-05-24T20:48:41;100710.59;;;14.36;75.46
31717;BME280;18301;51.076;17.046;2023-05-24T20:53:43;100713.09;;;14.28;76.02
31717;BME280;18301;51.076;17.046;2023-05-24T20:58:46;100715.53;;;14.31;76.13
31717;BME280;18301;51.076;17.046;2023-05-24T21:03:49;100722.72;;;14.32;76.34
31717;BME280;18301;51.076;17.046;2023-05-24T21:08:50;100729.00;;;14.33;76.38
31717;BME280;18301;51.076;17.046;2023-05-24T21:13:52;100725.28;;;14.34;76.47
31717;BME280;18301;51.076;17.046;2023-05-24T21:18:57;100738.16;;;14.32;76.50
31717;BME280;18301;51.076;17.046;2023-05-24T21:24:00;100749.38;;;14.27;76.88
31717;BME280;18301;51.076;17.046;2023-05-24T21:29:02;100753.38;;;14.12;77.08
31717;BME280;18301;51.076;17.046;2023-05-24T21:34:04;100752.69;;;13.98;77.57
31717;BME280;18301;51.076;17.046;2023-05-24T21:39:08;100761.94;;;13.85;78.32
31717;BME280;18301;51.076;17.046;2023-05-24T21:44:10;100747.25;;;13.87;78.43
31717;BME280;18301;51.076;17.046;2023-05-24T21:49:12;100757.16;;;13.66;80.05
31717;BME280;18301;51.076;17.046;2023-05-24T21:54:13;100767.25;;;13.64;79.74
31717;BME280;18301;51.076;17.046;2023-05-24T21:59:15;100768.75;;;13.56;79.69
31717;BME280;18301;51.076;17.046;2023-05-24T22:04:17;100768.25;;;13.51;80.11
31717;BME280;18301;51.076;17.046;2023-05-24T22:09:18;100773.91;;;13.37;79.92
31717;BME280;18301;51.076;17.046;2023-05-24T22:14:20;100777.34;;;13.39;79.87
31717;BME280;18301;51.076;17.046;2023-05-24T22:19:21;100775.63;;;13.38;80.02
31717;BME280;18301;51.076;17.046;2023-05-24T22:24:40;100773.56;;;13.30;80.03
31717;BME280;18301;51.076;17.046;2023-05-24T22:29:42;100777.13;;;13.31;80.19
31717;BME280;18301;51.076;17.046;2023-05-24T22:34:43;100767.47;;;13.27;80.35
31717;BME280;18301;51.076;17.046;2023-05-24T22:39:45;100780.38;;;13.23;80.32
31717;BME280;18301;51.076;17.046;2023-05-24T22:44:46;100776.31;;;13.06;80.53
31717;BME280;18301;51.076;17.046;2023-05-24T22:49:51;100774.09;;;13.11;80.45
31717;BME280;18301;51.076;17.046;2023-05-24T22:54:56;100776.56;;;13.03;80.38
31717;BME280;18301;51.076;17.046;2023-05-24T22:59:57;100777.53;;;13.02;80.32
31717;BME280;18301;51.076;17.046;2023-05-24T23:04:59;100769.38;;;12.91;80.35
31717;BME280;18301;51.076;17.046;2023-05-24T23:10:01;100774.28;;;12.86;80.04
31717;BME280;18301;51.076;17.046;2023-05-24T23:15:03;100772.31;;;12.88;79.81
31717;BME280;18301;51.076;17.046;2023-05-24T23:20:05;100781.03;;;12.80;79.91
31717;BME280;18301;51.076;17.046;2023-05-24T23:25:10;100783.09;;;12.65;80.29
31717;BME280;18301;51.076;17.046;2023-05-24T23:30:11;100779.41;;;12.66;80.23
31717;BME280;18301;51.076;17.046;2023-05-24T23:35:13;100780.38;;;12.65;80.38
31717;BME280;18301;51.076;17.046;2023-05-24T23:40:15;100781.97;;;12.68;80.26
31717;BME280;18301;51.076;17.046;2023-05-24T23:45:16;100789.22;;;12.67;80.32
31717;BME280;18301;51.076;17.046;2023-05-24T23:50:18;100784.81;;;12.66;79.95
31717;BME280;18301;51.076;17.046;2023-05-24T23:55:22;100774.75;;;12.69;79.70
